Decoded Metar for EPGD (GDANSK in POLAND) (IATA:GDN) | Meteo·Mobile Aviation Weather
aviador You're here:

EPGD Decoded Metar

GDANSK in POLAND
Report Time2019-03-23 08:00:00
UTC Time2019-03-23 08:23:21
Flight Rules mvfr MVFR
Wind230° at 13 kt
W.Decomp.*RWY 29: 5.5 kt HW 11.8 kt LCW
W.Rank230° ranks 7
Current wind is above 230° avg. (6.8)
Visibility9999 m
Phenomena:N/A
Clouds:Broken 010 Hf
Expected CloudBase > 1,600 ft AGL from Temp-Dew spread
Ceiling1,000 ft
Temp10°C (ISA -4)
Dew Point06°C (76% RH)
AAT4.4°C
QNH1024 hPa
Density Alt-279 ft
Elevation453 ft
Report Wrong Elevation
Raw Report
EPGD 230800Z 23013KT 9999 BKN010 10/06 Q1024=

Extra information for EPGD:More info

Metar Taf Metar & Taf Last 4 Metars F.Rules Stats Wind Profile Meteogram Temp Stats Airport Information Weather charts Add Link Nearby VenuesMetar ALERT Operation Metar Decoded Social comments